Dickinson's Hourly Summary for Wednesday, March 15, 2017
Hour Temp
(f)
RH
(%)
Solar Rad.
(MJ/m2)
Rainfall
(in)
Wind
(mph)
3/15/2017 12:00 AM 51 85 0 0 0
3/15/2017 1:00 AM 50 88 0 0 0
3/15/2017 2:00 AM 49 91 0 0 0
3/15/2017 3:00 AM 49 95 0 0 0
3/15/2017 4:00 AM 49 99 0 0 0
3/15/2017 5:00 AM 48 99 0 0 0
3/15/2017 6:00 AM 47 99 0 0 0
3/15/2017 7:00 AM 49 99 0 0 0
3/15/2017 8:00 AM 49 99 0.03 0 0.98
3/15/2017 9:00 AM 55 84 0.32 0 5.38
3/15/2017 10:00 AM 57 77 1.41 0 5.65
3/15/2017 11:00 AM 57 77 1.48 0 7.91
3/15/2017 12:00 PM 59 71 1.71 0 7.77
3/15/2017 1:00 PM 60 70 1.83 0 7.44
3/15/2017 2:00 PM 61 70 1.96 0 7.44
3/15/2017 3:00 PM 61 68 1.92 0 7.09
3/15/2017 4:00 PM 61 69 2.31 0 7.25
3/15/2017 5:00 PM 61 69 1.98 0 6.73
3/15/2017 6:00 PM 60 71 0.94 0 6.46
3/15/2017 7:00 PM 59 76 0.22 0 5.35
3/15/2017 8:00 PM 59 79 0.01 0 4.29
3/15/2017 9:00 PM 58 78 0 0 3.59
3/15/2017 10:00 PM 58 81 0 0 3.47
3/15/2017 11:00 PM 59 80 0 0 4.22
Data Summary 55 82 16.12 0.00 3.79